sensor_id;sensor_type;location;lat;lon;timestamp;temperature;humidity
37460;DHT22;23318;50.966;5.284;2024-02-21T00:00:47;9.10;99.90
37460;DHT22;23318;50.966;5.284;2024-02-21T00:03:13;9.20;99.90
37460;DHT22;23318;50.966;5.284;2024-02-21T00:05:39;9.10;99.90
37460;DHT22;23318;50.966;5.284;2024-02-21T00:08:05;9.20;99.90
37460;DHT22;23318;50.966;5.284;2024-02-21T00:10:30;9.10;99.90
37460;DHT22;23318;50.966;5.284;2024-02-21T00:12:59;9.10;99.90
37460;DHT22;23318;50.966;5.284;2024-02-21T00:15:25;9.20;99.90
37460;DHT22;23318;50.966;5.284;2024-02-21T00:17:51;9.20;99.90
37460;DHT22;23318;50.966;5.284;2024-02-21T00:20:17;9.20;99.90
37460;DHT22;23318;50.966;5.284;2024-02-21T00:22:46;9.30;99.90
37460;DHT22;23318;50.966;5.284;2024-02-21T00:25:11;9.20;99.90
37460;DHT22;23318;50.966;5.284;2024-02-21T00:27:38;9.10;99.90
37460;DHT22;23318;50.966;5.284;2024-02-21T00:30:05;9.10;99.90
37460;DHT22;23318;50.966;5.284;2024-02-21T00:32:30;9.10;99.90
37460;DHT22;23318;50.966;5.284;2024-02-21T00:34:57;9.20;99.90
37460;DHT22;23318;50.966;5.284;2024-02-21T00:37:23;9.10;99.90
37460;DHT22;23318;50.966;5.284;2024-02-21T00:39:49;9.10;99.90
37460;DHT22;23318;50.966;5.284;2024-02-21T00:42:14;9.10;99.90
37460;DHT22;23318;50.966;5.284;2024-02-21T00:44:40;9.10;99.90
37460;DHT22;23318;50.966;5.284;2024-02-21T00:47:05;9.10;99.90
37460;DHT22;23318;50.966;5.284;2024-02-21T00:49:31;9.20;99.90
37460;DHT22;23318;50.966;5.284;2024-02-21T00:51:57;9.20;99.90
37460;DHT22;23318;50.966;5.284;2024-02-21T00:54:22;9.10;99.90
37460;DHT22;23318;50.966;5.284;2024-02-21T00:56:48;9.10;99.90
37460;DHT22;23318;50.966;5.284;2024-02-21T00:59:14;9.10;99.90
37460;DHT22;23318;50.966;5.284;2024-02-21T01:01:39;9.00;99.90
37460;DHT22;23318;50.966;5.284;2024-02-21T01:04:08;9.00;99.90
37460;DHT22;23318;50.966;5.284;2024-02-21T01:06:34;9.00;99.90
37460;DHT22;23318;50.966;5.284;2024-02-21T01:09:00;9.00;99.90
37460;DHT22;23318;50.966;5.284;2024-02-21T01:11:26;9.00;99.90
37460;DHT22;23318;50.966;5.284;2024-02-21T01:13:51;9.00;99.90
37460;DHT22;23318;50.966;5.284;2024-02-21T01:16:17;9.00;99.90
37460;DHT22;23318;50.966;5.284;2024-02-21T01:18:42;9.10;99.90
37460;DHT22;23318;50.966;5.284;2024-02-21T01:21:08;9.00;99.90
37460;DHT22;23318;50.966;5.284;2024-02-21T01:23:36;9.10;99.90
37460;DHT22;23318;50.966;5.284;2024-02-21T01:26:03;9.10;99.90
37460;DHT22;23318;50.966;5.284;2024-02-21T01:28:29;9.10;99.90
37460;DHT22;23318;50.966;5.284;2024-02-21T01:30:55;9.10;99.90
37460;DHT22;23318;50.966;5.284;2024-02-21T01:33:21;9.00;99.90
37460;DHT22;23318;50.966;5.284;2024-02-21T01:35:46;9.00;99.90
37460;DHT22;23318;50.966;5.284;2024-02-21T01:38:15;9.00;99.90
37460;DHT22;23318;50.966;5.284;2024-02-21T01:40:41;9.10;99.90
37460;DHT22;23318;50.966;5.284;2024-02-21T01:43:16;9.00;99.90
37460;DHT22;23318;50.966;5.284;2024-02-21T01:45:42;9.00;99.90
37460;DHT22;23318;50.966;5.284;2024-02-21T01:48:08;9.00;99.90
37460;DHT22;23318;50.966;5.284;2024-02-21T01:50:33;9.10;99.90
37460;DHT22;23318;50.966;5.284;2024-02-21T01:53:00;9.10;99.90
37460;DHT22;23318;50.966;5.284;2024-02-21T01:55:26;9.10;99.90
37460;DHT22;23318;50.966;5.284;2024-02-21T01:57:52;9.00;99.90
37460;DHT22;23318;50.966;5.284;2024-02-21T02:00:17;9.00;99.90
37460;DHT22;23318;50.966;5.284;2024-02-21T02:02:44;9.00;99.90
37460;DHT22;23318;50.966;5.284;2024-02-21T02:05:11;9.00;99.90
37460;DHT22;23318;50.966;5.284;2024-02-21T02:07:37;9.00;99.90
37460;DHT22;23318;50.966;5.284;2024-02-21T02:10:03;9.00;99.90
37460;DHT22;23318;50.966;5.284;2024-02-21T02:12:29;9.00;99.90
37460;DHT22;23318;50.966;5.284;2024-02-21T02:15:02;9.00;99.90
37460;DHT22;23318;50.966;5.284;2024-02-21T02:17:30;9.00;99.90
37460;DHT22;23318;50.966;5.284;2024-02-21T02:19:56;9.00;99.90
37460;DHT22;23318;50.966;5.284;2024-02-21T02:22:32;9.00;99.90
37460;DHT22;23318;50.966;5.284;2024-02-21T02:24:59;9.00;99.90
37460;DHT22;23318;50.966;5.284;2024-02-21T02:27:25;8.90;99.90
37460;DHT22;23318;50.966;5.284;2024-02-21T02:29:51;8.90;99.90
37460;DHT22;23318;50.966;5.284;2024-02-21T02:32:17;8.90;99.90
37460;DHT22;23318;50.966;5.284;2024-02-21T02:34:43;9.00;99.90
37460;DHT22;23318;50.966;5.284;2024-02-21T02:37:09;8.90;99.90
37460;DHT22;23318;50.966;5.284;2024-02-21T02:39:34;9.00;99.90
37460;DHT22;23318;50.966;5.284;2024-02-21T02:42:01;9.00;99.90
37460;DHT22;23318;50.966;5.284;2024-02-21T02:44:27;9.00;99.90
37460;DHT22;23318;50.966;5.284;2024-02-21T02:46:52;8.90;99.90
37460;DHT22;23318;50.966;5.284;2024-02-21T02:49:18;8.90;99.90
37460;DHT22;23318;50.966;5.284;2024-02-21T02:51:44;8.90;99.90
37460;DHT22;23318;50.966;5.284;2024-02-21T02:54:10;8.80;99.90
37460;DHT22;23318;50.966;5.284;2024-02-21T02:56:36;8.90;99.90
37460;DHT22;23318;50.966;5.284;2024-02-21T02:59:02;8.90;99.90
37460;DHT22;23318;50.966;5.284;2024-02-21T03:01:28;8.90;99.90
37460;DHT22;23318;50.966;5.284;2024-02-21T03:03:54;8.90;99.90
37460;DHT22;23318;50.966;5.284;2024-02-21T03:06:20;8.80;99.90
37460;DHT22;23318;50.966;5.284;2024-02-21T03:08:45;8.80;99.90
37460;DHT22;23318;50.966;5.284;2024-02-21T03:11:11;8.80;99.90
37460;DHT22;23318;50.966;5.284;2024-02-21T03:13:37;8.80;99.90
37460;DHT22;23318;50.966;5.284;2024-02-21T03:16:03;8.80;99.90
37460;DHT22;23318;50.966;5.284;2024-02-21T03:18:29;8.80;99.90
37460;DHT22;23318;50.966;5.284;2024-02-21T03:20:54;8.90;99.90
37460;DHT22;23318;50.966;5.284;2024-02-21T03:23:20;8.90;99.90
37460;DHT22;23318;50.966;5.284;2024-02-21T03:25:45;8.90;99.90
37460;DHT22;23318;50.966;5.284;2024-02-21T03:28:11;8.90;99.90
37460;DHT22;23318;50.966;5.284;2024-02-21T03:30:37;8.90;99.90
37460;DHT22;23318;50.966;5.284;2024-02-21T03:33:03;8.90;99.90
37460;DHT22;23318;50.966;5.284;2024-02-21T03:35:28;8.90;99.90
37460;DHT22;23318;50.966;5.284;2024-02-21T03:37:54;9.00;99.90
37460;DHT22;23318;50.966;5.284;2024-02-21T03:40:20;8.90;99.90
37460;DHT22;23318;50.966;5.284;2024-02-21T03:42:45;8.90;99.90
37460;DHT22;23318;50.966;5.284;2024-02-21T03:45:11;8.90;99.90
37460;DHT22;23318;50.966;5.284;2024-02-21T03:47:36;9.00;99.90
37460;DHT22;23318;50.966;5.284;2024-02-21T03:50:02;8.90;99.90
37460;DHT22;23318;50.966;5.284;2024-02-21T03:52:28;8.80;99.90
37460;DHT22;23318;50.966;5.284;2024-02-21T03:54:53;8.80;99.90
37460;DHT22;23318;50.966;5.284;2024-02-21T03:57:20;8.70;99.90
37460;DHT22;23318;50.966;5.284;2024-02-21T03:59:46;8.70;99.90
37460;DHT22;23318;50.966;5.284;2024-02-21T04:02:15;8.70;99.90
37460;DHT22;23318;50.966;5.284;2024-02-21T04:04:43;8.70;99.90
37460;DHT22;23318;50.966;5.284;2024-02-21T04:07:12;8.70;99.90
37460;DHT22;23318;50.966;5.284;2024-02-21T04:09:37;8.70;99.90
37460;DHT22;23318;50.966;5.284;2024-02-21T04:12:03;8.80;99.90
37460;DHT22;23318;50.966;5.284;2024-02-21T04:14:29;8.80;99.90
37460;DHT22;23318;50.966;5.284;2024-02-21T04:16:55;8.70;99.90
37460;DHT22;23318;50.966;5.284;2024-02-21T04:19:20;8.60;99.90
37460;DHT22;23318;50.966;5.284;2024-02-21T04:21:46;8.50;99.90
37460;DHT22;23318;50.966;5.284;2024-02-21T04:24:11;8.60;99.90
37460;DHT22;23318;50.966;5.284;2024-02-21T04:26:37;8.60;99.90
37460;DHT22;23318;50.966;5.284;2024-02-21T04:29:03;8.60;99.90
37460;DHT22;23318;50.966;5.284;2024-02-21T04:31:28;8.60;99.90
37460;DHT22;23318;50.966;5.284;2024-02-21T04:33:54;8.60;99.90
37460;DHT22;23318;50.966;5.284;2024-02-21T04:36:20;8.60;99.90
37460;DHT22;23318;50.966;5.284;2024-02-21T04:38:45;8.60;99.90
37460;DHT22;23318;50.966;5.284;2024-02-21T04:41:11;8.60;99.90
37460;DHT22;23318;50.966;5.284;2024-02-21T04:43:37;8.60;99.90
37460;DHT22;23318;50.966;5.284;2024-02-21T04:46:02;8.60;99.90
37460;DHT22;23318;50.966;5.284;2024-02-21T04:48:28;8.60;99.90
37460;DHT22;23318;50.966;5.284;2024-02-21T04:50:54;8.70;99.90
37460;DHT22;23318;50.966;5.284;2024-02-21T04:53:19;8.70;99.90
37460;DHT22;23318;50.966;5.284;2024-02-21T04:55:46;8.80;99.90
37460;DHT22;23318;50.966;5.284;2024-02-21T04:58:12;8.80;99.90
37460;DHT22;23318;50.966;5.284;2024-02-21T05:00:38;8.60;99.90
37460;DHT22;23318;50.966;5.284;2024-02-21T05:03:04;8.70;99.90
37460;DHT22;23318;50.966;5.284;2024-02-21T05:05:29;8.70;99.90
37460;DHT22;23318;50.966;5.284;2024-02-21T05:07:55;8.70;99.90
37460;DHT22;23318;50.966;5.284;2024-02-21T05:10:21;8.70;99.90
37460;DHT22;23318;50.966;5.284;2024-02-21T05:12:46;8.60;99.90
37460;DHT22;23318;50.966;5.284;2024-02-21T05:15:12;8.60;99.90
37460;DHT22;23318;50.966;5.284;2024-02-21T05:17:37;8.60;99.90
37460;DHT22;23318;50.966;5.284;2024-02-21T05:20:03;8.70;99.90
37460;DHT22;23318;50.966;5.284;2024-02-21T05:22:29;8.80;99.90
37460;DHT22;23318;50.966;5.284;2024-02-21T05:24:54;8.80;99.90
37460;DHT22;23318;50.966;5.284;2024-02-21T05:27:20;8.80;99.90
37460;DHT22;23318;50.966;5.284;2024-02-21T05:29:46;8.80;99.90
37460;DHT22;23318;50.966;5.284;2024-02-21T05:32:13;8.90;99.90
37460;DHT22;23318;50.966;5.284;2024-02-21T05:34:39;8.80;99.90
37460;DHT22;23318;50.966;5.284;2024-02-21T05:37:05;8.80;99.90
37460;DHT22;23318;50.966;5.284;2024-02-21T05:39:30;8.70;99.90
37460;DHT22;23318;50.966;5.284;2024-02-21T05:41:56;8.70;99.90
37460;DHT22;23318;50.966;5.284;2024-02-21T05:44:22;8.80;99.90
37460;DHT22;23318;50.966;5.284;2024-02-21T05:46:47;8.70;99.90
37460;DHT22;23318;50.966;5.284;2024-02-21T05:49:13;8.70;99.90
37460;DHT22;23318;50.966;5.284;2024-02-21T05:51:39;8.70;99.90
37460;DHT22;23318;50.966;5.284;2024-02-21T05:54:05;8.70;99.90
37460;DHT22;23318;50.966;5.284;2024-02-21T05:56:32;8.70;99.90
37460;DHT22;23318;50.966;5.284;2024-02-21T05:58:58;8.70;99.90
37460;DHT22;23318;50.966;5.284;2024-02-21T06:01:25;8.70;99.90
37460;DHT22;23318;50.966;5.284;2024-02-21T06:03:51;8.60;99.90
37460;DHT22;23318;50.966;5.284;2024-02-21T06:06:16;8.60;99.90
37460;DHT22;23318;50.966;5.284;2024-02-21T06:08:42;8.60;99.90
37460;DHT22;23318;50.966;5.284;2024-02-21T06:11:08;8.60;99.90
37460;DHT22;23318;50.966;5.284;2024-02-21T06:13:37;8.60;99.90
37460;DHT22;23318;50.966;5.284;2024-02-21T06:16:04;8.60;99.90
37460;DHT22;23318;50.966;5.284;2024-02-21T06:18:30;8.70;99.90
37460;DHT22;23318;50.966;5.284;2024-02-21T06:20:55;8.70;99.90
37460;DHT22;23318;50.966;5.284;2024-02-21T06:23:21;8.80;99.90
37460;DHT22;23318;50.966;5.284;2024-02-21T06:25:47;8.70;99.90
37460;DHT22;23318;50.966;5.284;2024-02-21T06:28:13;8.60;99.90
37460;DHT22;23318;50.966;5.284;2024-02-21T06:30:40;8.60;99.90
37460;DHT22;23318;50.966;5.284;2024-02-21T06:33:05;8.60;99.90
37460;DHT22;23318;50.966;5.284;2024-02-21T06:35:33;8.60;99.90
37460;DHT22;23318;50.966;5.284;2024-02-21T06:37:59;8.60;99.90
37460;DHT22;23318;50.966;5.284;2024-02-21T06:40:24;8.50;99.90
37460;DHT22;23318;50.966;5.284;2024-02-21T06:42:50;8.70;99.90
37460;DHT22;23318;50.966;5.284;2024-02-21T06:45:16;8.60;99.90
37460;DHT22;23318;50.966;5.284;2024-02-21T06:47:43;8.50;99.90
37460;DHT22;23318;50.966;5.284;2024-02-21T06:50:09;8.50;99.90
37460;DHT22;23318;50.966;5.284;2024-02-21T06:52:38;8.40;99.90
37460;DHT22;23318;50.966;5.284;2024-02-21T06:55:04;8.40;99.90
37460;DHT22;23318;50.966;5.284;2024-02-21T06:57:30;8.30;99.90
37460;DHT22;23318;50.966;5.284;2024-02-21T06:59:55;8.30;99.90
37460;DHT22;23318;50.966;5.284;2024-02-21T07:02:21;8.40;99.90
37460;DHT22;23318;50.966;5.284;2024-02-21T07:04:47;8.30;99.90
37460;DHT22;23318;50.966;5.284;2024-02-21T07:07:12;8.30;99.90
37460;DHT22;23318;50.966;5.284;2024-02-21T07:09:38;8.40;99.90
37460;DHT22;23318;50.966;5.284;2024-02-21T07:12:04;8.40;99.90
37460;DHT22;23318;50.966;5.284;2024-02-21T07:14:32;8.40;99.90
37460;DHT22;23318;50.966;5.284;2024-02-21T07:16:57;8.40;99.90
37460;DHT22;23318;50.966;5.284;2024-02-21T07:19:23;8.30;99.90
37460;DHT22;23318;50.966;5.284;2024-02-21T07:21:49;8.40;99.90
37460;DHT22;23318;50.966;5.284;2024-02-21T07:24:14;8.30;99.90
37460;DHT22;23318;50.966;5.284;2024-02-21T07:26:43;8.30;99.90
37460;DHT22;23318;50.966;5.284;2024-02-21T07:29:09;8.30;99.90
37460;DHT22;23318;50.966;5.284;2024-02-21T07:31:40;8.20;99.90
37460;DHT22;23318;50.966;5.284;2024-02-21T07:34:06;8.20;99.90
37460;DHT22;23318;50.966;5.284;2024-02-21T07:36:32;8.20;99.90
37460;DHT22;23318;50.966;5.284;2024-02-21T07:38:57;8.20;99.90
37460;DHT22;23318;50.966;5.284;2024-02-21T07:41:23;8.20;99.90
37460;DHT22;23318;50.966;5.284;2024-02-21T07:43:48;8.30;99.90
37460;DHT22;23318;50.966;5.284;2024-02-21T07:46:14;8.10;99.90
37460;DHT22;23318;50.966;5.284;2024-02-21T07:48:40;8.20;99.90
37460;DHT22;23318;50.966;5.284;2024-02-21T07:51:06;8.20;99.90
37460;DHT22;23318;50.966;5.284;2024-02-21T07:53:31;8.30;99.90
37460;DHT22;23318;50.966;5.284;2024-02-21T07:55:57;8.30;99.90
37460;DHT22;23318;50.966;5.284;2024-02-21T07:58:22;8.20;99.90
37460;DHT22;23318;50.966;5.284;2024-02-21T08:00:48;8.40;99.90
37460;DHT22;23318;50.966;5.284;2024-02-21T08:03:14;8.30;99.90
37460;DHT22;23318;50.966;5.284;2024-02-21T08:05:43;8.30;99.90
37460;DHT22;23318;50.966;5.284;2024-02-21T08:08:08;8.40;99.90
37460;DHT22;23318;50.966;5.284;2024-02-21T08:10:34;8.40;99.90
37460;DHT22;23318;50.966;5.284;2024-02-21T08:13:00;8.50;99.90
37460;DHT22;23318;50.966;5.284;2024-02-21T08:15:26;8.40;99.90
37460;DHT22;23318;50.966;5.284;2024-02-21T08:17:55;8.50;99.90
37460;DHT22;23318;50.966;5.284;2024-02-21T08:20:24;8.60;99.90
37460;DHT22;23318;50.966;5.284;2024-02-21T08:22:50;8.60;99.90
37460;DHT22;23318;50.966;5.284;2024-02-21T08:25:16;8.60;99.90
37460;DHT22;23318;50.966;5.284;2024-02-21T08:27:41;8.60;99.90
37460;DHT22;23318;50.966;5.284;2024-02-21T08:30:07;8.80;99.90
37460;DHT22;23318;50.966;5.284;2024-02-21T08:32:33;8.90;99.90
37460;DHT22;23318;50.966;5.284;2024-02-21T08:35:01;9.00;99.90
37460;DHT22;23318;50.966;5.284;2024-02-21T08:37:30;8.90;99.90
37460;DHT22;23318;50.966;5.284;2024-02-21T08:39:55;8.90;99.90
37460;DHT22;23318;50.966;5.284;2024-02-21T08:42:21;9.00;99.90
37460;DHT22;23318;50.966;5.284;2024-02-21T08:44:46;9.30;99.90
37460;DHT22;23318;50.966;5.284;2024-02-21T08:47:12;9.30;99.90
37460;DHT22;23318;50.966;5.284;2024-02-21T08:49:38;9.40;99.90
37460;DHT22;23318;50.966;5.284;2024-02-21T08:52:04;9.50;99.90
37460;DHT22;23318;50.966;5.284;2024-02-21T08:54:31;9.50;99.90
37460;DHT22;23318;50.966;5.284;2024-02-21T08:56:58;9.30;99.90
37460;DHT22;23318;50.966;5.284;2024-02-21T08:59:24;9.30;99.90
37460;DHT22;23318;50.966;5.284;2024-02-21T09:01:51;9.50;99.90
37460;DHT22;23318;50.966;5.284;2024-02-21T09:04:18;9.50;99.90
37460;DHT22;23318;50.966;5.284;2024-02-21T09:06:45;9.50;99.90
37460;DHT22;23318;50.966;5.284;2024-02-21T09:09:11;9.30;99.90
37460;DHT22;23318;50.966;5.284;2024-02-21T09:11:37;9.30;99.90
37460;DHT22;23318;50.966;5.284;2024-02-21T09:14:03;9.40;99.90
37460;DHT22;23318;50.966;5.284;2024-02-21T09:16:33;9.50;99.90
37460;DHT22;23318;50.966;5.284;2024-02-21T09:18:59;9.30;99.90
37460;DHT22;23318;50.966;5.284;2024-02-21T09:21:25;9.40;99.90
37460;DHT22;23318;50.966;5.284;2024-02-21T09:23:51;9.60;99.90
37460;DHT22;23318;50.966;5.284;2024-02-21T09:26:17;9.70;99.90
37460;DHT22;23318;50.966;5.284;2024-02-21T09:28:43;9.60;99.90
37460;DHT22;23318;50.966;5.284;2024-02-21T09:31:09;9.50;99.90
37460;DHT22;23318;50.966;5.284;2024-02-21T09:33:35;9.50;99.90
37460;DHT22;23318;50.966;5.284;2024-02-21T09:36:02;9.40;99.90
37460;DHT22;23318;50.966;5.284;2024-02-21T09:38:28;9.50;99.90
37460;DHT22;23318;50.966;5.284;2024-02-21T09:41:11;9.50;99.90
37460;DHT22;23318;50.966;5.284;2024-02-21T09:43:40;9.50;99.90
37460;DHT22;23318;50.966;5.284;2024-02-21T09:46:08;9.60;99.90
37460;DHT22;23318;50.966;5.284;2024-02-21T09:51:21;9.80;99.90
37460;DHT22;23318;50.966;5.284;2024-02-21T09:53:49;9.80;99.90
37460;DHT22;23318;50.966;5.284;2024-02-21T09:56:16;9.90;99.90
37460;DHT22;23318;50.966;5.284;2024-02-21T09:58:42;9.70;99.90
37460;DHT22;23318;50.966;5.284;2024-02-21T10:01:08;9.70;99.90
37460;DHT22;23318;50.966;5.284;2024-02-21T10:03:34;9.80;99.90
37460;DHT22;23318;50.966;5.284;2024-02-21T10:06:00;9.90;99.90
37460;DHT22;23318;50.966;5.284;2024-02-21T10:08:26;10.00;99.90
37460;DHT22;23318;50.966;5.284;2024-02-21T10:10:52;10.30;99.90
37460;DHT22;23318;50.966;5.284;2024-02-21T10:13:29;10.30;99.90
37460;DHT22;23318;50.966;5.284;2024-02-21T10:16:07;10.50;99.90
37460;DHT22;23318;50.966;5.284;2024-02-21T10:18:36;10.80;99.90
37460;DHT22;23318;50.966;5.284;2024-02-21T10:21:02;10.70;99.90
37460;DHT22;23318;50.966;5.284;2024-02-21T10:23:29;10.50;99.90
37460;DHT22;23318;50.966;5.284;2024-02-21T10:26:04;10.60;99.90
37460;DHT22;23318;50.966;5.284;2024-02-21T10:28:31;10.80;99.90
37460;DHT22;23318;50.966;5.284;2024-02-21T10:30:57;10.70;99.90
37460;DHT22;23318;50.966;5.284;2024-02-21T10:33:23;10.90;99.90
37460;DHT22;23318;50.966;5.284;2024-02-21T10:35:50;10.60;99.90
37460;DHT22;23318;50.966;5.284;2024-02-21T10:38:16;10.90;99.90
37460;DHT22;23318;50.966;5.284;2024-02-21T10:40:42;10.90;99.90
37460;DHT22;23318;50.966;5.284;2024-02-21T10:43:12;11.00;99.90
37460;DHT22;23318;50.966;5.284;2024-02-21T10:45:39;10.60;99.90
37460;DHT22;23318;50.966;5.284;2024-02-21T10:50:32;10.70;99.90
37460;DHT22;23318;50.966;5.284;2024-02-21T10:53:14;10.70;99.90
37460;DHT22;23318;50.966;5.284;2024-02-21T10:55:48;10.50;99.90
37460;DHT22;23318;50.966;5.284;2024-02-21T10:58:16;10.50;99.90
37460;DHT22;23318;50.966;5.284;2024-02-21T11:00:42;10.60;99.90
37460;DHT22;23318;50.966;5.284;2024-02-21T11:03:09;10.70;99.90
37460;DHT22;23318;50.966;5.284;2024-02-21T11:05:35;10.70;99.90
37460;DHT22;23318;50.966;5.284;2024-02-21T11:08:01;10.70;99.90
37460;DHT22;23318;50.966;5.284;2024-02-21T11:10:27;10.80;99.90
37460;DHT22;23318;50.966;5.284;2024-02-21T11:13:13;10.80;99.90
37460;DHT22;23318;50.966;5.284;2024-02-21T11:15:39;11.00;99.90
37460;DHT22;23318;50.966;5.284;2024-02-21T11:18:05;11.00;99.90
37460;DHT22;23318;50.966;5.284;2024-02-21T11:20:38;10.90;99.90
37460;DHT22;23318;50.966;5.284;2024-02-21T11:23:04;11.20;99.90
37460;DHT22;23318;50.966;5.284;2024-02-21T11:25:30;11.20;99.90
37460;DHT22;23318;50.966;5.284;2024-02-21T11:28:03;11.50;99.90
37460;DHT22;23318;50.966;5.284;2024-02-21T11:30:33;11.30;99.90
37460;DHT22;23318;50.966;5.284;2024-02-21T11:33:05;11.30;99.90
37460;DHT22;23318;50.966;5.284;2024-02-21T11:35:35;11.40;99.90
37460;DHT22;23318;50.966;5.284;2024-02-21T11:38:11;11.10;99.90
37460;DHT22;23318;50.966;5.284;2024-02-21T11:40:44;11.10;99.90
37460;DHT22;23318;50.966;5.284;2024-02-21T11:43:10;11.00;99.90
37460;DHT22;23318;50.966;5.284;2024-02-21T11:45:35;11.20;99.90
37460;DHT22;23318;50.966;5.284;2024-02-21T11:48:02;11.10;99.90
37460;DHT22;23318;50.966;5.284;2024-02-21T11:50:31;11.20;99.90
37460;DHT22;23318;50.966;5.284;2024-02-21T11:52:57;11.30;99.90
37460;DHT22;23318;50.966;5.284;2024-02-21T11:55:23;11.60;99.90
37460;DHT22;23318;50.966;5.284;2024-02-21T11:57:49;11.70;99.90
37460;DHT22;23318;50.966;5.284;2024-02-21T12:00:16;11.90;99.90
37460;DHT22;23318;50.966;5.284;2024-02-21T12:02:44;11.70;99.90
37460;DHT22;23318;50.966;5.284;2024-02-21T12:05:10;11.90;99.90
37460;DHT22;23318;50.966;5.284;2024-02-21T12:07:37;12.00;99.90
37460;DHT22;23318;50.966;5.284;2024-02-21T12:10:10;11.80;99.90
37460;DHT22;23318;50.966;5.284;2024-02-21T12:12:36;11.90;99.90
37460;DHT22;23318;50.966;5.284;2024-02-21T12:15:03;11.50;99.90
37460;DHT22;23318;50.966;5.284;2024-02-21T12:17:30;11.10;99.90
37460;DHT22;23318;50.966;5.284;2024-02-21T12:19:56;11.10;99.90
37460;DHT22;23318;50.966;5.284;2024-02-21T12:22:22;11.20;99.90
37460;DHT22;23318;50.966;5.284;2024-02-21T12:24:48;11.20;99.90
37460;DHT22;23318;50.966;5.284;2024-02-21T12:27:14;11.00;99.90
37460;DHT22;23318;50.966;5.284;2024-02-21T12:29:39;11.10;99.90
37460;DHT22;23318;50.966;5.284;2024-02-21T12:32:05;11.20;99.90
37460;DHT22;23318;50.966;5.284;2024-02-21T12:34:31;11.00;99.90
37460;DHT22;23318;50.966;5.284;2024-02-21T12:37:02;11.10;99.90
37460;DHT22;23318;50.966;5.284;2024-02-21T12:39:28;11.10;99.90
37460;DHT22;23318;50.966;5.284;2024-02-21T12:41:54;11.10;99.90
37460;DHT22;23318;50.966;5.284;2024-02-21T12:44:22;11.10;99.90
37460;DHT22;23318;50.966;5.284;2024-02-21T12:46:47;10.90;99.90
37460;DHT22;23318;50.966;5.284;2024-02-21T12:49:18;10.90;99.90
37460;DHT22;23318;50.966;5.284;2024-02-21T12:51:44;10.80;99.90
37460;DHT22;23318;50.966;5.284;2024-02-21T12:54:12;10.90;99.90
37460;DHT22;23318;50.966;5.284;2024-02-21T12:56:38;11.00;99.90
37460;DHT22;23318;50.966;5.284;2024-02-21T12:59:05;11.20;99.90
37460;DHT22;23318;50.966;5.284;2024-02-21T13:01:33;10.90;99.90
37460;DHT22;23318;50.966;5.284;2024-02-21T13:03:58;11.00;99.90
37460;DHT22;23318;50.966;5.284;2024-02-21T13:06:26;11.00;99.90
37460;DHT22;23318;50.966;5.284;2024-02-21T13:08:52;10.90;99.90
37460;DHT22;23318;50.966;5.284;2024-02-21T13:11:17;10.90;99.90
37460;DHT22;23318;50.966;5.284;2024-02-21T13:13:43;11.00;99.90
37460;DHT22;23318;50.966;5.284;2024-02-21T13:16:09;11.10;99.90
37460;DHT22;23318;50.966;5.284;2024-02-21T13:18:36;11.20;99.90
37460;DHT22;23318;50.966;5.284;2024-02-21T13:21:04;11.10;99.90
37460;DHT22;23318;50.966;5.284;2024-02-21T13:23:30;11.10;99.90
37460;DHT22;23318;50.966;5.284;2024-02-21T13:25:55;11.00;99.90
37460;DHT22;23318;50.966;5.284;2024-02-21T13:28:21;11.00;99.90
37460;DHT22;23318;50.966;5.284;2024-02-21T13:30:47;11.10;99.90
37460;DHT22;23318;50.966;5.284;2024-02-21T13:33:13;11.20;99.90
37460;DHT22;23318;50.966;5.284;2024-02-21T13:35:39;11.20;99.90
37460;DHT22;23318;50.966;5.284;2024-02-21T13:38:05;11.20;99.90
37460;DHT22;23318;50.966;5.284;2024-02-21T13:40:30;11.40;99.90
37460;DHT22;23318;50.966;5.284;2024-02-21T13:42:56;11.40;99.90
37460;DHT22;23318;50.966;5.284;2024-02-21T13:45:22;11.20;99.90
37460;DHT22;23318;50.966;5.284;2024-02-21T13:47:47;11.30;99.90
37460;DHT22;23318;50.966;5.284;2024-02-21T13:50:14;11.40;99.90
37460;DHT22;23318;50.966;5.284;2024-02-21T13:52:40;11.30;99.90
37460;DHT22;23318;50.966;5.284;2024-02-21T13:55:06;11.20;99.90
37460;DHT22;23318;50.966;5.284;2024-02-21T13:57:36;11.10;99.90
37460;DHT22;23318;50.966;5.284;2024-02-21T14:00:05;11.10;99.90
37460;DHT22;23318;50.966;5.284;2024-02-21T14:02:31;11.10;99.90
37460;DHT22;23318;50.966;5.284;2024-02-21T14:04:56;11.10;99.90
37460;DHT22;23318;50.966;5.284;2024-02-21T14:07:22;11.10;99.90
37460;DHT22;23318;50.966;5.284;2024-02-21T14:09:48;11.30;99.90
37460;DHT22;23318;50.966;5.284;2024-02-21T14:12:15;11.20;99.90
37460;DHT22;23318;50.966;5.284;2024-02-21T14:14:43;11.30;99.90
37460;DHT22;23318;50.966;5.284;2024-02-21T14:17:09;11.30;99.90
37460;DHT22;23318;50.966;5.284;2024-02-21T14:19:35;11.40;99.90
37460;DHT22;23318;50.966;5.284;2024-02-21T14:22:00;11.30;99.90
37460;DHT22;23318;50.966;5.284;2024-02-21T14:24:27;11.20;99.90
37460;DHT22;23318;50.966;5.284;2024-02-21T14:26:53;11.00;99.90
37460;DHT22;23318;50.966;5.284;2024-02-21T14:29:19;10.90;99.90
37460;DHT22;23318;50.966;5.284;2024-02-21T14:31:46;10.90;99.90
37460;DHT22;23318;50.966;5.284;2024-02-21T14:34:12;11.00;99.90
37460;DHT22;23318;50.966;5.284;2024-02-21T14:36:37;11.00;99.90
37460;DHT22;23318;50.966;5.284;2024-02-21T14:39:03;10.80;99.90
37460;DHT22;23318;50.966;5.284;2024-02-21T14:41:30;10.70;99.90
37460;DHT22;23318;50.966;5.284;2024-02-21T14:43:55;10.70;99.90
37460;DHT22;23318;50.966;5.284;2024-02-21T14:46:25;10.60;99.90
37460;DHT22;23318;50.966;5.284;2024-02-21T14:48:54;10.50;99.90
37460;DHT22;23318;50.966;5.284;2024-02-21T14:51:20;10.40;99.90
37460;DHT22;23318;50.966;5.284;2024-02-21T14:53:45;10.40;99.90
37460;DHT22;23318;50.966;5.284;2024-02-21T14:56:18;10.30;99.90
37460;DHT22;23318;50.966;5.284;2024-02-21T14:58:44;10.20;99.90
37460;DHT22;23318;50.966;5.284;2024-02-21T15:01:09;10.30;99.90
37460;DHT22;23318;50.966;5.284;2024-02-21T15:03:35;10.20;99.90
37460;DHT22;23318;50.966;5.284;2024-02-21T15:06:02;10.10;99.90
37460;DHT22;23318;50.966;5.284;2024-02-21T15:08:28;10.10;99.90
37460;DHT22;23318;50.966;5.284;2024-02-21T15:10:54;10.10;99.90
37460;DHT22;23318;50.966;5.284;2024-02-21T15:13:20;10.20;99.90
37460;DHT22;23318;50.966;5.284;2024-02-21T15:15:47;10.00;99.90
37460;DHT22;23318;50.966;5.284;2024-02-21T15:18:14;9.90;99.90
37460;DHT22;23318;50.966;5.284;2024-02-21T15:20:40;9.80;99.90
37460;DHT22;23318;50.966;5.284;2024-02-21T15:23:06;9.80;99.90
37460;DHT22;23318;50.966;5.284;2024-02-21T15:25:32;9.80;99.90
37460;DHT22;23318;50.966;5.284;2024-02-21T15:27:59;9.80;99.90
37460;DHT22;23318;50.966;5.284;2024-02-21T15:30:25;9.70;99.90
37460;DHT22;23318;50.966;5.284;2024-02-21T15:32:50;9.60;99.90
37460;DHT22;23318;50.966;5.284;2024-02-21T15:35:16;9.50;99.90
37460;DHT22;23318;50.966;5.284;2024-02-21T15:37:41;9.60;99.90
37460;DHT22;23318;50.966;5.284;2024-02-21T15:40:07;9.40;99.90